sensor_id;sensor_type;location;lat;lon;timestamp;temperature;humidity
19567;DHT22;9930;49.240;8.548;2022-09-16T00:01:52;19.30;73.50
19567;DHT22;9930;49.240;8.548;2022-09-16T00:04:22;19.20;73.50
19567;DHT22;9930;49.240;8.548;2022-09-16T00:06:52;19.20;73.40
19567;DHT22;9930;49.240;8.548;2022-09-16T00:09:22;19.20;73.30
19567;DHT22;9930;49.240;8.548;2022-09-16T00:11:52;19.20;73.50
19567;DHT22;9930;49.240;8.548;2022-09-16T00:14:22;19.20;73.70
19567;DHT22;9930;49.240;8.548;2022-09-16T00:16:52;19.20;73.60
19567;DHT22;9930;49.240;8.548;2022-09-16T00:19:21;19.20;73.60
19567;DHT22;9930;49.240;8.548;2022-09-16T00:21:49;19.20;73.50
19567;DHT22;9930;49.240;8.548;2022-09-16T00:24:17;19.20;73.60
19567;DHT22;9930;49.240;8.548;2022-09-16T00:26:47;19.20;73.50
19567;DHT22;9930;49.240;8.548;2022-09-16T00:29:22;19.20;73.50
19567;DHT22;9930;49.240;8.548;2022-09-16T00:31:52;19.20;73.60
19567;DHT22;9930;49.240;8.548;2022-09-16T00:34:22;19.20;73.40
19567;DHT22;9930;49.240;8.548;2022-09-16T00:36:52;19.20;73.20
19567;DHT22;9930;49.240;8.548;2022-09-16T00:39:24;19.20;73.40
19567;DHT22;9930;49.240;8.548;2022-09-16T00:41:52;19.20;73.20
19567;DHT22;9930;49.240;8.548;2022-09-16T00:47:47;19.20;73.50
19567;DHT22;9930;49.240;8.548;2022-09-16T00:50:40;19.20;73.40
19567;DHT22;9930;49.240;8.548;2022-09-16T00:53:22;19.20;74.00
19567;DHT22;9930;49.240;8.548;2022-09-16T00:55:54;19.20;73.50
19567;DHT22;9930;49.240;8.548;2022-09-16T00:58:27;19.20;73.50
19567;DHT22;9930;49.240;8.548;2022-09-16T01:01:00;19.20;73.50
19567;DHT22;9930;49.240;8.548;2022-09-16T01:03:34;19.20;73.50
19567;DHT22;9930;49.240;8.548;2022-09-16T01:06:08;19.20;73.70
19567;DHT22;9930;49.240;8.548;2022-09-16T01:08:36;19.20;73.20
19567;DHT22;9930;49.240;8.548;2022-09-16T01:11:02;19.20;73.10
19567;DHT22;9930;49.240;8.548;2022-09-16T01:13:28;19.20;73.00
19567;DHT22;9930;49.240;8.548;2022-09-16T01:16:25;19.20;72.90
19567;DHT22;9930;49.240;8.548;2022-09-16T01:19:16;19.10;72.80
19567;DHT22;9930;49.240;8.548;2022-09-16T01:34:01;19.00;73.50
19567;DHT22;9930;49.240;8.548;2022-09-16T01:37:07;19.00;73.60
19567;DHT22;9930;49.240;8.548;2022-09-16T01:40:18;18.90;73.70
19567;DHT22;9930;49.240;8.548;2022-09-16T01:46:32;18.80;73.90
19567;DHT22;9930;49.240;8.548;2022-09-16T01:49:24;18.80;73.30
19567;DHT22;9930;49.240;8.548;2022-09-16T01:52:24;18.80;73.20
19567;DHT22;9930;49.240;8.548;2022-09-16T01:55:00;18.70;73.50
19567;DHT22;9930;49.240;8.548;2022-09-16T01:57:35;18.70;73.60
19567;DHT22;9930;49.240;8.548;2022-09-16T02:00:09;18.60;74.00
19567;DHT22;9930;49.240;8.548;2022-09-16T02:02:53;18.70;74.20
19567;DHT22;9930;49.240;8.548;2022-09-16T02:05:32;18.60;74.60
19567;DHT22;9930;49.240;8.548;2022-09-16T02:08:06;18.60;74.80
19567;DHT22;9930;49.240;8.548;2022-09-16T02:10:44;18.60;74.90
19567;DHT22;9930;49.240;8.548;2022-09-16T02:13:25;18.60;75.10
19567;DHT22;9930;49.240;8.548;2022-09-16T02:15:57;18.60;75.20
19567;DHT22;9930;49.240;8.548;2022-09-16T02:18:32;18.60;75.20
19567;DHT22;9930;49.240;8.548;2022-09-16T02:21:03;18.60;75.40
19567;DHT22;9930;49.240;8.548;2022-09-16T02:23:39;18.50;75.30
19567;DHT22;9930;49.240;8.548;2022-09-16T02:26:10;18.50;75.40
19567;DHT22;9930;49.240;8.548;2022-09-16T02:28:41;18.50;75.40
19567;DHT22;9930;49.240;8.548;2022-09-16T02:31:10;18.50;75.50
19567;DHT22;9930;49.240;8.548;2022-09-16T02:33:46;18.50;75.50
19567;DHT22;9930;49.240;8.548;2022-09-16T02:36:24;18.50;75.60
19567;DHT22;9930;49.240;8.548;2022-09-16T02:39:07;18.50;75.40
19567;DHT22;9930;49.240;8.548;2022-09-16T02:41:36;18.50;75.70
19567;DHT22;9930;49.240;8.548;2022-09-16T02:44:04;18.50;75.30
19567;DHT22;9930;49.240;8.548;2022-09-16T02:50:02;18.50;75.60
19567;DHT22;9930;49.240;8.548;2022-09-16T02:52:47;18.50;75.50
19567;DHT22;9930;49.240;8.548;2022-09-16T02:55:52;18.50;75.60
19567;DHT22;9930;49.240;8.548;2022-09-16T02:58:22;18.50;75.80
19567;DHT22;9930;49.240;8.548;2022-09-16T03:00:53;18.50;75.60
19567;DHT22;9930;49.240;8.548;2022-09-16T03:03:22;18.50;75.80
19567;DHT22;9930;49.240;8.548;2022-09-16T03:06:11;18.50;75.70
19567;DHT22;9930;49.240;8.548;2022-09-16T03:08:40;18.60;75.90
19567;DHT22;9930;49.240;8.548;2022-09-16T03:11:32;18.60;75.90
19567;DHT22;9930;49.240;8.548;2022-09-16T03:23:18;18.60;76.20
19567;DHT22;9930;49.240;8.548;2022-09-16T03:29:01;18.60;76.20
19567;DHT22;9930;49.240;8.548;2022-09-16T03:34:28;18.60;76.40
19567;DHT22;9930;49.240;8.548;2022-09-16T03:37:00;18.60;76.70
19567;DHT22;9930;49.240;8.548;2022-09-16T03:39:31;18.70;76.40
19567;DHT22;9930;49.240;8.548;2022-09-16T03:42:05;18.70;76.40
19567;DHT22;9930;49.240;8.548;2022-09-16T03:44:38;18.70;76.50
19567;DHT22;9930;49.240;8.548;2022-09-16T03:47:08;18.70;76.40
19567;DHT22;9930;49.240;8.548;2022-09-16T03:49:35;18.70;76.50
19567;DHT22;9930;49.240;8.548;2022-09-16T03:52:01;18.70;76.40
19567;DHT22;9930;49.240;8.548;2022-09-16T03:54:30;18.70;76.50
19567;DHT22;9930;49.240;8.548;2022-09-16T03:56:59;18.70;76.60
19567;DHT22;9930;49.240;8.548;2022-09-16T03:59:28;18.70;76.70
19567;DHT22;9930;49.240;8.548;2022-09-16T04:01:56;18.70;76.90
19567;DHT22;9930;49.240;8.548;2022-09-16T04:04:22;18.70;77.00
19567;DHT22;9930;49.240;8.548;2022-09-16T04:06:52;18.70;77.00
19567;DHT22;9930;49.240;8.548;2022-09-16T04:09:21;18.70;77.10
19567;DHT22;9930;49.240;8.548;2022-09-16T04:11:52;18.70;77.10
19567;DHT22;9930;49.240;8.548;2022-09-16T04:14:22;18.60;77.00
19567;DHT22;9930;49.240;8.548;2022-09-16T04:16:53;18.60;76.90
19567;DHT22;9930;49.240;8.548;2022-09-16T04:19:27;18.60;77.70
19567;DHT22;9930;49.240;8.548;2022-09-16T04:21:55;18.60;77.40
19567;DHT22;9930;49.240;8.548;2022-09-16T04:24:23;18.60;77.10
19567;DHT22;9930;49.240;8.548;2022-09-16T04:26:52;18.60;77.00
19567;DHT22;9930;49.240;8.548;2022-09-16T04:29:23;18.60;77.00
19567;DHT22;9930;49.240;8.548;2022-09-16T04:31:53;18.60;77.00
19567;DHT22;9930;49.240;8.548;2022-09-16T04:34:23;18.60;77.00
19567;DHT22;9930;49.240;8.548;2022-09-16T04:36:53;18.60;77.10
19567;DHT22;9930;49.240;8.548;2022-09-16T04:39:22;18.60;77.00
19567;DHT22;9930;49.240;8.548;2022-09-16T04:41:52;18.60;77.20
19567;DHT22;9930;49.240;8.548;2022-09-16T04:44:25;18.60;77.50
19567;DHT22;9930;49.240;8.548;2022-09-16T04:46:55;18.50;77.70
19567;DHT22;9930;49.240;8.548;2022-09-16T04:49:27;18.50;77.60
19567;DHT22;9930;49.240;8.548;2022-09-16T04:51:53;18.50;77.70
19567;DHT22;9930;49.240;8.548;2022-09-16T04:54:25;18.50;77.50
19567;DHT22;9930;49.240;8.548;2022-09-16T04:56:55;18.50;77.60
19567;DHT22;9930;49.240;8.548;2022-09-16T04:59:23;18.50;77.70
19567;DHT22;9930;49.240;8.548;2022-09-16T05:01:53;18.50;77.80
19567;DHT22;9930;49.240;8.548;2022-09-16T05:04:26;18.40;78.00
19567;DHT22;9930;49.240;8.548;2022-09-16T05:06:53;18.40;77.90
19567;DHT22;9930;49.240;8.548;2022-09-16T05:09:23;18.40;77.80
19567;DHT22;9930;49.240;8.548;2022-09-16T05:11:53;18.40;77.80
19567;DHT22;9930;49.240;8.548;2022-09-16T05:14:22;18.40;77.90
19567;DHT22;9930;49.240;8.548;2022-09-16T05:16:53;18.40;77.80
19567;DHT22;9930;49.240;8.548;2022-09-16T05:19:23;18.30;77.70
19567;DHT22;9930;49.240;8.548;2022-09-16T05:21:52;18.30;77.70
19567;DHT22;9930;49.240;8.548;2022-09-16T05:24:22;18.30;77.70
19567;DHT22;9930;49.240;8.548;2022-09-16T05:26:52;18.30;77.80
19567;DHT22;9930;49.240;8.548;2022-09-16T05:29:22;18.30;78.00
19567;DHT22;9930;49.240;8.548;2022-09-16T05:31:58;18.30;78.10
19567;DHT22;9930;49.240;8.548;2022-09-16T05:34:24;18.20;78.40
19567;DHT22;9930;49.240;8.548;2022-09-16T05:36:54;18.30;78.30
19567;DHT22;9930;49.240;8.548;2022-09-16T05:39:23;18.20;78.20
19567;DHT22;9930;49.240;8.548;2022-09-16T05:42:00;18.20;78.20
19567;DHT22;9930;49.240;8.548;2022-09-16T05:44:29;18.20;78.40
19567;DHT22;9930;49.240;8.548;2022-09-16T05:46:55;18.20;78.30
19567;DHT22;9930;49.240;8.548;2022-09-16T05:49:23;18.20;78.30
19567;DHT22;9930;49.240;8.548;2022-09-16T05:51:53;18.20;78.30
19567;DHT22;9930;49.240;8.548;2022-09-16T05:54:22;18.20;78.30
19567;DHT22;9930;49.240;8.548;2022-09-16T05:56:53;18.20;78.40
19567;DHT22;9930;49.240;8.548;2022-09-16T05:59:22;18.20;78.50
19567;DHT22;9930;49.240;8.548;2022-09-16T06:01:53;18.20;78.60
19567;DHT22;9930;49.240;8.548;2022-09-16T06:04:22;18.20;78.70
19567;DHT22;9930;49.240;8.548;2022-09-16T06:06:52;18.20;78.70
19567;DHT22;9930;49.240;8.548;2022-09-16T06:09:25;18.20;78.50
19567;DHT22;9930;49.240;8.548;2022-09-16T06:11:56;18.10;78.70
19567;DHT22;9930;49.240;8.548;2022-09-16T06:14:23;18.20;79.00
19567;DHT22;9930;49.240;8.548;2022-09-16T06:16:53;18.20;79.00
19567;DHT22;9930;49.240;8.548;2022-09-16T06:19:23;18.10;79.10
19567;DHT22;9930;49.240;8.548;2022-09-16T06:21:53;18.10;79.10
19567;DHT22;9930;49.240;8.548;2022-09-16T06:24:23;18.10;79.20
19567;DHT22;9930;49.240;8.548;2022-09-16T06:26:53;18.10;79.20
19567;DHT22;9930;49.240;8.548;2022-09-16T06:29:23;18.20;79.30
19567;DHT22;9930;49.240;8.548;2022-09-16T06:31:57;18.20;79.10
19567;DHT22;9930;49.240;8.548;2022-09-16T06:34:23;18.20;79.20
19567;DHT22;9930;49.240;8.548;2022-09-16T06:36:52;18.20;79.10
19567;DHT22;9930;49.240;8.548;2022-09-16T06:39:24;18.20;79.20
19567;DHT22;9930;49.240;8.548;2022-09-16T06:41:53;18.20;79.30
19567;DHT22;9930;49.240;8.548;2022-09-16T06:44:22;18.30;79.40
19567;DHT22;9930;49.240;8.548;2022-09-16T06:46:53;18.30;79.70
19567;DHT22;9930;49.240;8.548;2022-09-16T06:49:23;18.30;79.60
19567;DHT22;9930;49.240;8.548;2022-09-16T06:51:53;18.30;79.70
19567;DHT22;9930;49.240;8.548;2022-09-16T06:54:22;18.40;79.60
19567;DHT22;9930;49.240;8.548;2022-09-16T06:56:52;18.40;79.30
19567;DHT22;9930;49.240;8.548;2022-09-16T06:59:22;18.40;79.00
19567;DHT22;9930;49.240;8.548;2022-09-16T07:01:53;18.50;78.90
19567;DHT22;9930;49.240;8.548;2022-09-16T07:04:22;18.50;79.10
19567;DHT22;9930;49.240;8.548;2022-09-16T07:06:53;18.50;79.00
19567;DHT22;9930;49.240;8.548;2022-09-16T07:09:23;18.50;79.00
19567;DHT22;9930;49.240;8.548;2022-09-16T07:11:53;18.60;79.00
19567;DHT22;9930;49.240;8.548;2022-09-16T07:14:22;18.60;78.90
19567;DHT22;9930;49.240;8.548;2022-09-16T07:16:52;18.60;79.20
19567;DHT22;9930;49.240;8.548;2022-09-16T07:19:22;18.70;79.40
19567;DHT22;9930;49.240;8.548;2022-09-16T07:21:53;18.80;79.20
19567;DHT22;9930;49.240;8.548;2022-09-16T07:24:23;18.80;79.20
19567;DHT22;9930;49.240;8.548;2022-09-16T07:26:53;18.90;79.10
19567;DHT22;9930;49.240;8.548;2022-09-16T07:29:22;19.00;78.80
19567;DHT22;9930;49.240;8.548;2022-09-16T07:31:48;19.00;78.70
19567;DHT22;9930;49.240;8.548;2022-09-16T07:34:18;19.20;78.60
19567;DHT22;9930;49.240;8.548;2022-09-16T07:36:51;19.20;78.50
19567;DHT22;9930;49.240;8.548;2022-09-16T07:39:19;19.30;78.30
19567;DHT22;9930;49.240;8.548;2022-09-16T07:41:53;19.30;78.10
19567;DHT22;9930;49.240;8.548;2022-09-16T07:44:23;19.30;77.70
19567;DHT22;9930;49.240;8.548;2022-09-16T07:46:53;19.30;77.30
19567;DHT22;9930;49.240;8.548;2022-09-16T07:49:26;19.40;77.20
19567;DHT22;9930;49.240;8.548;2022-09-16T07:51:56;19.40;76.90
19567;DHT22;9930;49.240;8.548;2022-09-16T07:54:24;19.40;77.00
19567;DHT22;9930;49.240;8.548;2022-09-16T07:56:57;19.30;77.00
19567;DHT22;9930;49.240;8.548;2022-09-16T07:59:23;19.30;77.00
19567;DHT22;9930;49.240;8.548;2022-09-16T08:01:53;19.40;77.20
19567;DHT22;9930;49.240;8.548;2022-09-16T08:04:23;19.30;77.20
19567;DHT22;9930;49.240;8.548;2022-09-16T08:06:54;19.30;77.20
19567;DHT22;9930;49.240;8.548;2022-09-16T08:09:23;19.30;77.10
19567;DHT22;9930;49.240;8.548;2022-09-16T08:11:53;19.30;77.10
19567;DHT22;9930;49.240;8.548;2022-09-16T08:14:23;19.30;77.10
19567;DHT22;9930;49.240;8.548;2022-09-16T08:16:52;19.30;77.00
19567;DHT22;9930;49.240;8.548;2022-09-16T08:19:22;19.30;77.00
19567;DHT22;9930;49.240;8.548;2022-09-16T08:21:53;19.30;76.80
19567;DHT22;9930;49.240;8.548;2022-09-16T08:24:28;19.40;76.80
19567;DHT22;9930;49.240;8.548;2022-09-16T08:26:56;19.30;76.40
19567;DHT22;9930;49.240;8.548;2022-09-16T08:29:23;19.40;76.70
19567;DHT22;9930;49.240;8.548;2022-09-16T08:31:53;19.40;76.60
19567;DHT22;9930;49.240;8.548;2022-09-16T08:34:23;19.40;76.60
19567;DHT22;9930;49.240;8.548;2022-09-16T08:36:53;19.50;76.60
19567;DHT22;9930;49.240;8.548;2022-09-16T08:39:23;19.40;76.50
19567;DHT22;9930;49.240;8.548;2022-09-16T08:44:59;19.50;76.00
19567;DHT22;9930;49.240;8.548;2022-09-16T08:48:12;19.50;76.10
19567;DHT22;9930;49.240;8.548;2022-09-16T08:50:53;19.60;76.00
19567;DHT22;9930;49.240;8.548;2022-09-16T08:56:25;19.70;76.10
19567;DHT22;9930;49.240;8.548;2022-09-16T08:58:56;19.70;76.30
19567;DHT22;9930;49.240;8.548;2022-09-16T09:01:37;19.80;76.10
19567;DHT22;9930;49.240;8.548;2022-09-16T09:04:11;19.80;75.60
19567;DHT22;9930;49.240;8.548;2022-09-16T09:13:02;19.80;75.10
19567;DHT22;9930;49.240;8.548;2022-09-16T09:15:49;19.90;75.30
19567;DHT22;9930;49.240;8.548;2022-09-16T09:21:47;19.90;75.00
19567;DHT22;9930;49.240;8.548;2022-09-16T09:28:07;19.90;74.80
19567;DHT22;9930;49.240;8.548;2022-09-16T09:31:13;19.90;75.10
19567;DHT22;9930;49.240;8.548;2022-09-16T09:37:14;19.80;75.40
19567;DHT22;9930;49.240;8.548;2022-09-16T09:45:59;20.00;75.40
19567;DHT22;9930;49.240;8.548;2022-09-16T09:49:07;20.00;74.60
19567;DHT22;9930;49.240;8.548;2022-09-16T09:52:04;20.00;74.50
19567;DHT22;9930;49.240;8.548;2022-09-16T09:54:36;20.10;74.50
19567;DHT22;9930;49.240;8.548;2022-09-16T10:02:39;20.30;72.90
19567;DHT22;9930;49.240;8.548;2022-09-16T10:05:18;20.40;74.10
19567;DHT22;9930;49.240;8.548;2022-09-16T10:08:01;20.40;72.20
19567;DHT22;9930;49.240;8.548;2022-09-16T10:10:45;20.50;72.00
19567;DHT22;9930;49.240;8.548;2022-09-16T10:13:13;20.60;71.40
19567;DHT22;9930;49.240;8.548;2022-09-16T10:15:41;20.70;71.80
19567;DHT22;9930;49.240;8.548;2022-09-16T10:18:18;20.80;71.60
19567;DHT22;9930;49.240;8.548;2022-09-16T10:21:06;20.90;71.00
19567;DHT22;9930;49.240;8.548;2022-09-16T10:23:37;21.00;70.30
19567;DHT22;9930;49.240;8.548;2022-09-16T10:26:17;21.10;70.00
19567;DHT22;9930;49.240;8.548;2022-09-16T10:29:00;21.10;69.00
19567;DHT22;9930;49.240;8.548;2022-09-16T10:31:38;21.30;69.60
19567;DHT22;9930;49.240;8.548;2022-09-16T10:34:21;21.30;69.40
19567;DHT22;9930;49.240;8.548;2022-09-16T10:39:35;21.50;67.90
19567;DHT22;9930;49.240;8.548;2022-09-16T10:42:18;21.60;68.40
19567;DHT22;9930;49.240;8.548;2022-09-16T10:45:24;21.60;66.90
19567;DHT22;9930;49.240;8.548;2022-09-16T10:47:59;21.60;66.40
19567;DHT22;9930;49.240;8.548;2022-09-16T10:50:28;21.70;67.40
19567;DHT22;9930;49.240;8.548;2022-09-16T10:52:56;21.70;66.80
19567;DHT22;9930;49.240;8.548;2022-09-16T10:55:30;21.70;66.40
19567;DHT22;9930;49.240;8.548;2022-09-16T10:58:29;21.70;65.40
19567;DHT22;9930;49.240;8.548;2022-09-16T11:10:09;21.70;63.10
19567;DHT22;9930;49.240;8.548;2022-09-16T11:24:24;21.80;61.00
19567;DHT22;9930;49.240;8.548;2022-09-16T11:30:23;22.00;63.30
19567;DHT22;9930;49.240;8.548;2022-09-16T11:38:35;22.30;62.10
19567;DHT22;9930;49.240;8.548;2022-09-16T11:55:49;22.70;60.30
19567;DHT22;9930;49.240;8.548;2022-09-16T11:58:34;22.70;58.40
19567;DHT22;9930;49.240;8.548;2022-09-16T12:01:25;22.60;58.50
19567;DHT22;9930;49.240;8.548;2022-09-16T12:03:59;22.60;58.10
19567;DHT22;9930;49.240;8.548;2022-09-16T12:10:11;22.40;58.40
19567;DHT22;9930;49.240;8.548;2022-09-16T12:13:02;22.30;58.30
19567;DHT22;9930;49.240;8.548;2022-09-16T12:15:41;22.30;58.20
19567;DHT22;9930;49.240;8.548;2022-09-16T12:21:05;22.20;58.40
19567;DHT22;9930;49.240;8.548;2022-09-16T12:23:42;22.20;59.00
19567;DHT22;9930;49.240;8.548;2022-09-16T12:26:20;22.10;59.30
19567;DHT22;9930;49.240;8.548;2022-09-16T12:29:13;22.10;59.20
19567;DHT22;9930;49.240;8.548;2022-09-16T12:32:08;22.10;59.20
19567;DHT22;9930;49.240;8.548;2022-09-16T12:34:54;22.10;58.70
19567;DHT22;9930;49.240;8.548;2022-09-16T12:37:52;22.10;58.50
19567;DHT22;9930;49.240;8.548;2022-09-16T12:40:30;22.10;57.80
19567;DHT22;9930;49.240;8.548;2022-09-16T12:46:58;22.20;58.50
19567;DHT22;9930;49.240;8.548;2022-09-16T13:00:54;22.10;56.30
19567;DHT22;9930;49.240;8.548;2022-09-16T13:03:32;22.20;57.70
19567;DHT22;9930;49.240;8.548;2022-09-16T13:06:06;22.20;57.90
19567;DHT22;9930;49.240;8.548;2022-09-16T13:08:52;22.30;57.60
19567;DHT22;9930;49.240;8.548;2022-09-16T13:11:24;22.30;57.50
19567;DHT22;9930;49.240;8.548;2022-09-16T13:13:55;22.30;57.40
19567;DHT22;9930;49.240;8.548;2022-09-16T13:16:34;22.40;57.50
19567;DHT22;9930;49.240;8.548;2022-09-16T13:25:06;22.30;56.70
19567;DHT22;9930;49.240;8.548;2022-09-16T13:27:39;22.30;56.60
19567;DHT22;9930;49.240;8.548;2022-09-16T13:30:35;22.30;56.90
19567;DHT22;9930;49.240;8.548;2022-09-16T13:33:24;22.30;56.30
19567;DHT22;9930;49.240;8.548;2022-09-16T13:49:48;22.20;56.70
19567;DHT22;9930;49.240;8.548;2022-09-16T13:52:33;22.20;57.10
19567;DHT22;9930;49.240;8.548;2022-09-16T13:55:05;22.30;57.00
19567;DHT22;9930;49.240;8.548;2022-09-16T14:00:36;22.40;56.30
19567;DHT22;9930;49.240;8.548;2022-09-16T14:13:15;22.40;55.10
19567;DHT22;9930;49.240;8.548;2022-09-16T14:15:56;22.40;55.60
19567;DHT22;9930;49.240;8.548;2022-09-16T14:18:31;22.50;55.90
19567;DHT22;9930;49.240;8.548;2022-09-16T14:23:26;22.40;55.40
19567;DHT22;9930;49.240;8.548;2022-09-16T14:25:53;22.40;55.10
19567;DHT22;9930;49.240;8.548;2022-09-16T14:28:27;22.40;55.00
19567;DHT22;9930;49.240;8.548;2022-09-16T14:30:56;22.40;54.20
19567;DHT22;9930;49.240;8.548;2022-09-16T14:33:56;22.50;54.70
19567;DHT22;9930;49.240;8.548;2022-09-16T14:36:34;22.50;53.90
19567;DHT22;9930;49.240;8.548;2022-09-16T14:42:02;22.50;53.50
19567;DHT22;9930;49.240;8.548;2022-09-16T14:44:38;22.40;53.30
19567;DHT22;9930;49.240;8.548;2022-09-16T14:47:26;22.40;53.80
19567;DHT22;9930;49.240;8.548;2022-09-16T14:50:00;22.30;53.60
19567;DHT22;9930;49.240;8.548;2022-09-16T14:52:34;22.20;53.20
19567;DHT22;9930;49.240;8.548;2022-09-16T14:55:12;22.10;53.60
19567;DHT22;9930;49.240;8.548;2022-09-16T14:57:47;21.90;53.70
19567;DHT22;9930;49.240;8.548;2022-09-16T15:00:15;21.80;54.00
19567;DHT22;9930;49.240;8.548;2022-09-16T15:03:09;21.60;53.50
19567;DHT22;9930;49.240;8.548;2022-09-16T15:05:48;21.50;54.00
19567;DHT22;9930;49.240;8.548;2022-09-16T15:08:28;21.50;54.60
19567;DHT22;9930;49.240;8.548;2022-09-16T15:11:09;21.30;54.50
19567;DHT22;9930;49.240;8.548;2022-09-16T15:13:41;21.30;54.70
19567;DHT22;9930;49.240;8.548;2022-09-16T15:16:14;21.20;55.00
19567;DHT22;9930;49.240;8.548;2022-09-16T15:21:27;21.10;55.10
19567;DHT22;9930;49.240;8.548;2022-09-16T15:23:58;21.10;55.30
19567;DHT22;9930;49.240;8.548;2022-09-16T15:26:38;21.00;55.40
19567;DHT22;9930;49.240;8.548;2022-09-16T15:29:24;21.00;55.20
19567;DHT22;9930;49.240;8.548;2022-09-16T15:31:53;20.90;55.40
19567;DHT22;9930;49.240;8.548;2022-09-16T15:34:30;20.90;55.60
19567;DHT22;9930;49.240;8.548;2022-09-16T15:36:57;20.90;55.70
19567;DHT22;9930;49.240;8.548;2022-09-16T15:42:09;20.80;55.80
19567;DHT22;9930;49.240;8.548;2022-09-16T15:44:57;20.70;55.60
19567;DHT22;9930;49.240;8.548;2022-09-16T15:47:25;20.70;55.20
19567;DHT22;9930;49.240;8.548;2022-09-16T15:53:08;20.50;55.40
19567;DHT22;9930;49.240;8.548;2022-09-16T15:55:52;20.50;55.40
19567;DHT22;9930;49.240;8.548;2022-09-16T16:03:53;20.20;55.60
19567;DHT22;9930;49.240;8.548;2022-09-16T16:11:54;19.90;55.90
19567;DHT22;9930;49.240;8.548;2022-09-16T16:14:26;19.90;56.20
19567;DHT22;9930;49.240;8.548;2022-09-16T16:17:06;19.90;56.30
19567;DHT22;9930;49.240;8.548;2022-09-16T16:19:51;19.80;56.30
19567;DHT22;9930;49.240;8.548;2022-09-16T16:22:21;19.70;56.10
19567;DHT22;9930;49.240;8.548;2022-09-16T16:24:51;19.60;56.10
19567;DHT22;9930;49.240;8.548;2022-09-16T16:27:17;19.60;56.40
19567;DHT22;9930;49.240;8.548;2022-09-16T16:29:47;19.50;56.50
19567;DHT22;9930;49.240;8.548;2022-09-16T16:32:15;19.40;56.60
19567;DHT22;9930;49.240;8.548;2022-09-16T16:34:43;19.40;56.80
19567;DHT22;9930;49.240;8.548;2022-09-16T16:37:12;19.30;57.00
19567;DHT22;9930;49.240;8.548;2022-09-16T16:39:39;19.30;57.30
19567;DHT22;9930;49.240;8.548;2022-09-16T16:42:10;19.20;57.40
19567;DHT22;9930;49.240;8.548;2022-09-16T16:44:37;19.20;57.60
19567;DHT22;9930;49.240;8.548;2022-09-16T16:47:05;19.10;57.80
19567;DHT22;9930;49.240;8.548;2022-09-16T16:49:31;19.10;58.00
19567;DHT22;9930;49.240;8.548;2022-09-16T16:52:04;19.10;58.00
19567;DHT22;9930;49.240;8.548;2022-09-16T16:54:33;19.10;58.10
19567;DHT22;9930;49.240;8.548;2022-09-16T16:57:00;19.00;58.20
19567;DHT22;9930;49.240;8.548;2022-09-16T16:59:29;19.00;58.30
19567;DHT22;9930;49.240;8.548;2022-09-16T17:01:57;19.00;58.40
19567;DHT22;9930;49.240;8.548;2022-09-16T17:04:25;19.00;58.40
19567;DHT22;9930;49.240;8.548;2022-09-16T17:06:51;19.00;58.50
19567;DHT22;9930;49.240;8.548;2022-09-16T17:09:23;18.90;58.50
19567;DHT22;9930;49.240;8.548;2022-09-16T17:11:59;18.90;58.50
19567;DHT22;9930;49.240;8.548;2022-09-16T17:14:29;18.90;58.50
19567;DHT22;9930;49.240;8.548;2022-09-16T17:16:58;18.90;58.70
19567;DHT22;9930;49.240;8.548;2022-09-16T17:19:29;18.80;58.70
19567;DHT22;9930;49.240;8.548;2022-09-16T17:21:56;18.80;58.70
19567;DHT22;9930;49.240;8.548;2022-09-16T17:24:24;18.80;58.80
19567;DHT22;9930;49.240;8.548;2022-09-16T17:26:51;18.80;58.60
19567;DHT22;9930;49.240;8.548;2022-09-16T17:29:17;18.80;58.60
19567;DHT22;9930;49.240;8.548;2022-09-16T17:31:45;18.80;58.70
19567;DHT22;9930;49.240;8.548;2022-09-16T17:34:13;18.70;58.70
19567;DHT22;9930;49.240;8.548;2022-09-16T17:36:45;18.70;58.80
19567;DHT22;9930;49.240;8.548;2022-09-16T17:39:14;18.60;59.10
19567;DHT22;9930;49.240;8.548;2022-09-16T17:41:43;18.60;59.20
19567;DHT22;9930;49.240;8.548;2022-09-16T17:44:13;18.50;59.20
19567;DHT22;9930;49.240;8.548;2022-09-16T17:46:41;18.40;59.30
19567;DHT22;9930;49.240;8.548;2022-09-16T17:49:15;18.40;59.70
19567;DHT22;9930;49.240;8.548;2022-09-16T17:51:43;18.30;59.90
19567;DHT22;9930;49.240;8.548;2022-09-16T17:54:11;18.30;60.00
19567;DHT22;9930;49.240;8.548;2022-09-16T17:56:38;18.20;60.00
19567;DHT22;9930;49.240;8.548;2022-09-16T17:59:06;18.20;60.10
19567;DHT22;9930;49.240;8.548;2022-09-16T18:01:32;18.20;60.30
19567;DHT22;9930;49.240;8.548;2022-09-16T18:03:58;18.10;60.50
19567;DHT22;9930;49.240;8.548;2022-09-16T18:06:38;18.00;60.60
19567;DHT22;9930;49.240;8.548;2022-09-16T18:09:16;18.00;60.80
19567;DHT22;9930;49.240;8.548;2022-09-16T18:11:46;18.00;60.80
19567;DHT22;9930;49.240;8.548;2022-09-16T18:14:14;17.90;61.00
19567;DHT22;9930;49.240;8.548;2022-09-16T18:16:40;17.90;61.10
19567;DHT22;9930;49.240;8.548;2022-09-16T18:19:07;17.80;61.00
19567;DHT22;9930;49.240;8.548;2022-09-16T18:21:35;17.80;61.10
19567;DHT22;9930;49.240;8.548;2022-09-16T18:24:03;17.70;61.20
19567;DHT22;9930;49.240;8.548;2022-09-16T18:26:30;17.70;61.30
19567;DHT22;9930;49.240;8.548;2022-09-16T18:29:01;17.60;61.40
19567;DHT22;9930;49.240;8.548;2022-09-16T18:31:27;17.60;61.50
19567;DHT22;9930;49.240;8.548;2022-09-16T18:33:54;17.60;61.70
19567;DHT22;9930;49.240;8.548;2022-09-16T18:36:27;17.60;61.80
19567;DHT22;9930;49.240;8.548;2022-09-16T18:38:55;17.50;61.80
19567;DHT22;9930;49.240;8.548;2022-09-16T18:41:33;17.60;61.80
19567;DHT22;9930;49.240;8.548;2022-09-16T18:44:06;17.50;62.00
19567;DHT22;9930;49.240;8.548;2022-09-16T18:46:39;17.50;61.90
19567;DHT22;9930;49.240;8.548;2022-09-16T18:49:12;17.50;62.20
19567;DHT22;9930;49.240;8.548;2022-09-16T18:51:45;17.50;63.00
19567;DHT22;9930;49.240;8.548;2022-09-16T18:54:22;17.50;62.30
19567;DHT22;9930;49.240;8.548;2022-09-16T18:56:56;17.50;62.40
19567;DHT22;9930;49.240;8.548;2022-09-16T18:59:25;17.40;62.30
19567;DHT22;9930;49.240;8.548;2022-09-16T19:01:59;17.40;62.20
19567;DHT22;9930;49.240;8.548;2022-09-16T19:04:29;17.40;62.10
19567;DHT22;9930;49.240;8.548;2022-09-16T19:07:00;17.40;62.20
19567;DHT22;9930;49.240;8.548;2022-09-16T19:09:32;17.40;62.30
19567;DHT22;9930;49.240;8.548;2022-09-16T19:12:00;17.30;62.40
19567;DHT22;9930;49.240;8.548;2022-09-16T19:14:27;17.30;62.50
19567;DHT22;9930;49.240;8.548;2022-09-16T19:16:53;17.30;62.50
19567;DHT22;9930;49.240;8.548;2022-09-16T19:19:22;17.30;62.60
19567;DHT22;9930;49.240;8.548;2022-09-16T19:21:48;17.30;62.80
19567;DHT22;9930;49.240;8.548;2022-09-16T19:24:16;17.30;62.80
19567;DHT22;9930;49.240;8.548;2022-09-16T19:26:49;17.30;62.80
19567;DHT22;9930;49.240;8.548;2022-09-16T19:29:19;17.30;62.70
19567;DHT22;9930;49.240;8.548;2022-09-16T19:31:50;17.30;62.90
19567;DHT22;9930;49.240;8.548;2022-09-16T19:34:18;17.20;62.80
19567;DHT22;9930;49.240;8.548;2022-09-16T19:36:44;17.20;62.90
19567;DHT22;9930;49.240;8.548;2022-09-16T19:39:11;17.10;63.00
19567;DHT22;9930;49.240;8.548;2022-09-16T19:41:38;17.10;63.10
19567;DHT22;9930;49.240;8.548;2022-09-16T19:44:11;17.10;63.30